Time;durP1;ratioP1;P1;durP2;ratioP2;P2;SDS_P1;SDS_P2;PMS_P1;PMS_P2;Temp;Humidity;BMP_temperature;BMP_pressure;BME280_temperature;BME280_humidity;BME280_pressure;Samples;Min_cycle;Max_cycle;Signal;HPM_P1;HPM_P2
2023/01/10 00:18:04;;;;;;;25.50;15.70;;;;;;;9.08;70.72;98039.06;232371;1196;138988;-70
2023/01/10 00:53:57;;;;;;;22.50;14.60;;;;;;;8.85;70.51;98075.20;231648;1199;140208;-67
2023/01/10 00:59:38;;;;;;;;;;;;;;;;;;;;;
2023/01/10 01:12:45;;;;;;;20.50;12.70;;;;;;;8.81;70.33;98092.47;233829;1198;139484;-65
2023/01/10 01:26:13;;;;;;;;;;;;;;;;;;;;;
2023/01/10 01:39:45;;;;;;;;;;;;;;;;;;;;;
2023/01/10 01:45:54;;;;;;;;;;;;;;;;;;;;;
2023/01/10 01:57:30;;;;;;;19.90;12.60;;;;;;;8.77;70.84;98107.23;230248;1212;635749;-67
2023/01/10 02:38:59;;;;;;;;;;;;;;;;;;;;;
2023/01/10 02:53:18;;;;;;;22.70;12.70;;;;;;;8.44;71.60;98140.66;231705;1200;228971;-68
2023/01/10 02:58:50;;;;;;;18.70;12.10;;;;;;;8.42;71.88;98150.13;231074;1203;140171;-70
2023/01/10 03:05:50;;;;;;;18.70;11.90;;;;;;;8.38;71.71;98155.90;231418;1200;139972;-68
2023/01/10 03:33:21;;;;;;;18.20;12.50;;;;;;;8.38;71.69;98186.61;232105;1196;139802;-66
2023/01/10 03:39:33;;;;;;;;;;;;;;;8.34;71.86;98193.79;232371;1196;138741;-68
2023/01/10 03:46:37;;;;;;;138.60;99.60;;;;;;;8.39;72.54;98201.73;232607;1192;125718;-69
2023/01/10 03:51:45;;;;;;;96.60;64.80;;;;;;;8.37;71.83;98216.00;232688;1196;139186;-69
2023/01/10 03:58:10;;;;;;;;;;;;;;;;;;;;;
2023/01/10 04:04:18;;;;;;;;;;;;;;;;;;;;;
2023/01/10 04:10:58;;;;;;;16.60;11.10;;;;;;;8.38;71.71;98247.80;232425;1193;139516;-69
2023/01/10 04:16:29;;;;;;;14.50;9.80;;;;;;;8.35;71.32;98253.09;232515;1193;139501;-70
2023/01/10 04:22:53;;;;;;;;;;;;;;;;;;;;;
2023/01/10 04:29:10;;;;;;;15.00;9.60;;;;;;;8.35;70.83;98262.30;232401;1192;139777;-69
2023/01/10 04:35:39;;;;;;;10.90;6.80;;;;;;;8.25;70.69;98271.38;232442;1193;138825;-68
2023/01/10 05:53:51;;;;;;;6.60;4.60;;;;;;;8.05;70.14;98398.61;231986;1200;138304;-67
2023/01/10 06:00:10;;;;;;;7.80;4.80;;;;;;;8.04;69.83;98406.14;231932;1200;138556;-68
2023/01/10 06:05:57;;;;;;;6.50;4.80;;;;;;;8.00;69.78;98419.80;232010;1204;138322;-66
2023/01/10 06:25:45;;;;;;;;;;;;;;;;;;;;;
2023/01/10 06:31:40;;;;;;;;;;;;;;;;;;;;;
2023/01/10 06:38:41;;;;;;;7.80;3.90;;;;;;;7.76;69.71;98471.23;233835;1201;139774;-69
2023/01/10 06:44:57;;;;;;;;;;;;;;;;;;;;;
2023/01/10 06:51:29;;;;;;;;;;;;;;;;;;;;;
2023/01/10 06:57:56;;;;;;;7.60;3.60;;;;;;;7.60;69.52;98511.40;233828;1201;138572;-68
2023/01/10 07:11:39;;;;;;;4.50;2.70;;;;;;;7.47;69.60;98517.59;233568;1201;139947;-67
2023/01/10 07:25:52;;;;;;;5.30;2.70;;;;;;;7.46;69.25;98519.78;233551;1201;139188;-69
2023/01/10 07:31:40;;;;;;;;;;;;;;;;;;;;;
2023/01/10 07:38:18;;;;;;;7.10;2.50;;;;;;;7.45;69.31;98543.48;234366;1197;138544;-70
2023/01/10 07:52:03;;;;;;;4.50;2.20;;;;;;;7.35;68.98;98550.92;234256;1196;138492;-66
2023/01/10 07:57:55;;;;;;;;;;;;;;;;;;;;;
2023/01/10 08:03:23;;;;;;;5.20;2.60;;;;;;;7.28;69.63;98557.33;234173;1200;138322;-71
2023/01/10 08:23:43;;;;;;;7.30;4.10;;;;;;;7.41;69.75;98580.98;234167;1198;139353;-68
2023/01/10 08:36:54;;;;;;;7.30;3.70;;;;;;;7.45;69.47;98608.75;234129;1196;138611;-69
2023/01/10 08:58:02;;;;;;;;;;;;;;;;;;;;;
2023/01/10 09:04:17;;;;;;;9.10;3.70;;;;;;;7.50;69.99;98658.80;234055;1195;140029;-66
2023/01/10 09:09:48;;;;;;;8.50;4.10;;;;;;;7.56;70.07;98675.77;234585;1196;140899;-69
2023/01/10 09:15:35;;;;;;;10.00;4.50;;;;;;;7.71;69.81;98679.00;234762;1195;139256;-69
2023/01/10 09:21:42;;;;;;;9.20;4.70;;;;;;;7.81;69.52;98675.39;234650;1198;138431;-71
2023/01/10 09:27:35;;;;;;;;;;;;;;;;;;;;;
2023/01/10 09:33:20;;;;;;;;;;;;;;;;;;;;;
2023/01/10 09:38:40;;;;;;;8.00;4.70;;;;;;;7.78;68.94;98687.94;234781;1197;139123;-67
2023/01/10 09:45:13;;;;;;;9.00;5.10;;;;;;;7.80;69.11;98693.46;234851;1197;138758;-67
2023/01/10 09:51:47;;;;;;;8.40;4.90;;;;;;;7.75;69.09;98689.53;234444;1196;138809;-67
2023/01/10 09:58:01;;;;;;;;;;;;;;;;;;;;;
2023/01/10 10:04:33;;;;;;;9.00;4.60;;;;;;;7.75;69.44;98697.49;234351;1199;138848;-67
2023/01/10 10:10:27;;;;;;;71.80;44.80;;;;;;;7.78;69.33;98714.23;234499;1196;139487;-65
2023/01/10 10:17:28;;;;;;;8.60;4.80;;;;;;;7.97;69.39;98726.27;234437;1197;139915;-66
2023/01/10 10:32:18;;;;;;;6.30;3.60;;;;;;;7.82;68.85;98739.11;234279;1195;139170;-67
2023/01/10 10:44:45;;;;;;;;;;;;;;;;;;;;;
2023/01/10 10:57:25;;;;;;;;;;;;;;;;;;;;;
2023/01/10 11:17:15;;;;;;;4.70;2.50;;;;;;;7.90;68.26;98781.62;233334;1203;139303;-66
2023/01/10 11:23:33;;;;;;;;;;;;;;;;;;;;;
2023/01/10 11:29:21;;;;;;;5.50;2.60;;;;;;;7.84;67.63;98804.16;234001;1199;140151;-66
2023/01/10 11:50:23;;;;;;;4.70;2.30;;;;;;;7.61;67.94;98826.60;233828;1195;138861;-69
2023/01/10 12:03:08;;;;;;;6.00;2.50;;;;;;;7.63;68.38;98857.58;233890;1199;139789;-66
2023/01/10 12:09:35;;;;;;;;;;;;;;;;;;;;;
2023/01/10 12:15:15;;;;;;;7.00;2.70;;;;;;;7.70;68.62;98875.02;233700;1200;138882;-65
2023/01/10 12:34:52;;;;;;;;;;;;;;;;;;;;;
2023/01/10 12:55:28;;;;;;;;;;;;;;;;;;;;;
2023/01/10 13:02:49;;;;;;;;;;;;;;;;;;;;;
2023/01/10 13:09:21;;;;;;;;;;;;;;;;;;;;;
2023/01/10 13:16:19;;;;;;;6.10;3.80;;;;;;;7.58;69.68;98949.99;233727;1200;139844;-65
2023/01/10 13:22:56;;;;;;;;;;;;;;;;;;;;;
2023/01/10 13:29:12;;;;;;;;;;;;;;;;;;;;;
2023/01/10 13:48:27;;;;;;;7.40;4.60;;;;;;;7.66;70.40;99005.73;233027;1199;140430;-65
2023/01/10 13:55:13;;;;;;;;;;;;;;;;;;;;;
2023/01/10 14:02:48;;;;;;;7.20;5.10;;;;;;;7.82;69.70;99018.15;233568;1200;139246;-64
2023/01/10 14:08:37;;;;;;;9.10;5.70;;;;;;;7.75;70.14;99024.35;233000;1203;139431;-63
2023/01/10 14:15:26;;;;;;;;;;;;;;;;;;;;;
2023/01/10 14:21:50;;;;;;;9.70;6.30;;;;;;;7.73;70.01;99032.19;234540;1198;138768;-64
2023/01/10 14:28:15;;;;;;;;;;;;;;;;;;;;;
2023/01/10 14:34:39;;;;;;;10.50;6.70;;;;;;;7.76;70.21;99046.91;233704;1200;141645;-69
2023/01/10 14:47:53;;;;;;;;;;;;;;;;;;;;;
2023/01/10 14:54:23;;;;;;;11.30;6.80;;;;;;;7.75;69.64;99047.65;234229;1196;139886;-65
2023/01/10 15:01:02;;;;;;;10.40;7.60;;;;;;;7.68;69.71;99051.73;234267;1197;139833;-67
2023/01/10 15:06:53;;;;;;;;;;;;;;;;;;;;;
2023/01/10 15:13:44;;;;;;;11.60;7.60;;;;;;;7.58;70.47;99051.14;231830;1212;644541;-65
2023/01/10 15:18:54;;;;;;;13.50;8.30;;;;;;;7.55;70.02;99056.27;233887;1199;140116;-65
2023/01/10 15:25:11;;;;;;;11.80;7.80;;;;;;;7.59;70.04;99058.35;233937;1200;140176;-65
2023/01/10 15:31:38;;;;;;;12.00;7.30;;;;;;;7.61;69.86;99065.65;233986;1200;139595;-66
2023/01/10 15:37:36;;;;;;;;;;;;;;;;;;;;;
2023/01/10 15:44:00;;;;;;;10.60;7.80;;;;;;;7.54;69.94;99081.52;234476;1193;139442;-66
2023/01/10 15:50:16;;;;;;;12.40;8.60;;;;;;;7.55;69.97;99091.36;234547;1195;140322;-65
2023/01/10 15:56:39;;;;;;;;;;;;;;;;;;;;;
2023/01/10 16:03:02;;;;;;;;;;;;;;;;;;;;;
2023/01/10 16:08:57;;;;;;;11.30;7.50;;;;;;;7.57;70.34;99122.52;234493;1193;140388;-66
2023/01/10 16:15:02;;;;;;;12.00;7.70;;;;;;;7.62;70.46;99132.73;234519;1195;139526;-67
2023/01/10 16:21:20;;;;;;;;;;;;;;;;;;;;;
2023/01/10 16:27:01;;;;;;;;;;;;;;;;;;;;;
2023/01/10 16:33:06;;;;;;;;;;;;;;;;;;;;;
2023/01/10 16:39:31;;;;;;;12.10;8.50;;;;;;;7.67;70.82;99162.31;234414;1195;139764;-68
2023/01/10 16:46:20;;;;;;;11.50;8.70;;;;;;;7.58;71.20;99175.30;234516;1194;139136;-66
2023/01/10 16:52:08;;;;;;;12.70;9.10;;;;;;;7.55;71.59;99189.33;234594;1195;138284;-69
2023/01/10 16:57:43;;;;;;;;;;;;;;;;;;;;;
2023/01/10 17:03:50;;;;;;;;;;;;;;;;;;;;;
2023/01/10 17:10:01;;;;;;;13.70;8.90;;;;;;;7.90;70.99;99216.32;234723;1193;138203;-67
2023/01/10 17:16:20;;;;;;;13.70;9.30;;;;;;;7.91;70.57;99219.63;234687;1193;138764;-65
2023/01/10 17:22:37;;;;;;;14.80;9.40;;;;;;;7.88;70.56;99226.65;234664;1196;138711;-66
2023/01/10 17:28:49;;;;;;;15.80;9.80;;;;;;;7.85;70.77;99223.80;234667;1193;139012;-71
2023/01/10 17:34:39;;;;;;;15.00;10.00;;;;;;;7.86;70.70;99235.80;234735;1193;139053;-65
2023/01/10 17:46:21;;;;;;;15.20;11.00;;;;;;;7.92;70.16;99250.30;234646;1196;139546;-65
2023/01/10 18:03:58;;;;;;;15.10;11.20;;;;;;;7.88;69.51;99266.23;233876;1198;138729;-67
2023/01/10 18:09:56;;;;;;;69.80;44.30;;;;;;;7.78;69.47;99268.64;234039;1199;139073;-64
2023/01/10 18:16:07;;;;;;;20.20;14.00;;;;;;;7.81;69.85;99269.72;233987;1200;139632;-65
2023/01/10 18:35:50;;;;;;;;;;;;;;;;;;;;;
2023/01/10 18:42:03;;;;;;;;;;;;;;;;;;;;;
2023/01/10 18:48:14;;;;;;;15.70;10.70;;;;;;;7.73;69.79;99278.59;234513;1197;139522;-68
2023/01/10 19:01:17;;;;;;;16.60;11.30;;;;;;;7.71;69.85;99284.30;234229;1196;139145;-67
2023/01/10 19:20:15;;;;;;;19.00;12.00;;;;;;;7.64;70.07;99310.76;233883;1196;139386;-68
2023/01/10 19:26:53;;;;;;;103.80;70.30;;;;;;;7.90;71.12;99308.84;234213;1196;140208;-67
2023/01/10 19:33:00;;;;;;;;;;;;;;;;;;;;;
2023/01/10 19:38:51;;;;;;;16.40;11.90;;;;;;;8.05;69.22;99312.73;234189;1196;140171;-68
2023/01/10 19:44:41;;;;;;;24.40;15.60;;;;;;;8.07;69.45;99320.09;234470;1196;138687;-66
2023/01/10 19:55:40;;;;;;;;;;;;;;;;;;;;;
2023/01/10 20:01:24;;;;;;;130.10;78.70;;;;;;;7.92;69.42;99321.86;234166;1198;139515;-67
2023/01/10 20:07:11;;;;;;;;;;;;;;;;;;;;;
2023/01/10 20:12:47;;;;;;;;;;;;;;;;;;;;;
2023/01/10 20:18:14;;;;;;;21.10;15.00;;;;;;;7.89;69.23;99336.13;235008;1192;139910;-67
2023/01/10 20:24:15;;;;;;;;;;;;;;;;;;;;;
2023/01/10 20:37:57;;;;;;;20.50;15.80;;;;;;;7.94;69.00;99346.34;234381;1193;139034;-65
2023/01/10 21:03:06;;;;;;;23.70;18.00;;;;;;;7.79;69.39;99367.32;233824;1200;139079;-66
2023/01/10 21:09:25;;;;;;;24.10;17.70;;;;;;;7.71;69.58;99371.04;233923;1199;139375;-66
2023/01/10 21:29:45;;;;;;;26.00;18.90;;;;;;;7.90;69.11;99382.52;233557;1199;138933;-66
2023/01/10 21:35:35;;;;;;;29.20;19.00;;;;;;;7.87;68.79;99389.39;233976;1200;139642;-66
2023/01/10 21:48:23;;;;;;;19.80;15.40;;;;;;;7.73;68.68;99395.15;234145;1199;139496;-67
2023/01/10 21:54:21;;;;;;;;;;;;;;;;;;;;;
2023/01/10 22:07:20;;;;;;;20.10;14.90;;;;;;;7.59;68.34;99394.36;234091;1198;139033;-66
2023/01/10 22:13:53;;;;;;;18.10;13.90;;;;;;;7.50;68.72;99394.76;234140;1200;139419;-66
2023/01/10 23:33:05;;;;;;;19.30;14.70;;;;;;;7.58;67.84;99408.15;234032;1196;139069;-66
2023/01/10 23:38:23;;;;;;;18.70;13.70;;;;;;;7.55;67.72;99409.02;234326;1200;139257;-68
2023/01/10 23:44:09;;;;;;;19.00;13.80;;;;;;;7.54;67.81;99408.88;235063;1192;139097;-67
2023/01/10 23:50:04;;;;;;;16.30;12.20;;;;;;;7.54;67.46;99408.50;235351;1192;139499;-68
2023/01/10 23:56:02;;;;;;;;;;;;;;;;;;;;;
